Terminal Aerodrome Forecast
Issued by NWS

Home | Current Version | Previous Version | Text Only | Print | Product List | Glossary On
Versions: 1 2 3 4 5 6 7 8 9 10 11 12 13 14 15
000
FTUS45 KTFX 302000 AAA
TAFHVR
TAF AMD
KHVR 302001Z 3020/3118 32010G18KT P6SM SCT090 BKN150
     FM310100 32006KT P6SM SCT180=

USA.gov is the U.S. government's official web portal to all federal, state and local government web resources and services.